Time;durP1;ratioP1;P1;durP2;ratioP2;P2;SDS_P1;SDS_P2;PMS_P1;PMS_P2;Temp;Humidity;BMP_temperature;BMP_pressure;BME280_temperature;BME280_humidity;BME280_pressure;Samples;Min_cycle;Max_cycle;Signal;HPM_P1;HPM_P2
2022/08/02 00:00:08;;;;;;;10.20;3.10;;;13.50;99.90;;;;;;5027918;28;20103;-72
2022/08/02 00:02:33;;;;;;;7.50;3.05;;;13.50;99.90;;;;;;5024676;28;20050;-73
2022/08/02 00:04:59;;;;;;;9.20;3.10;;;13.40;99.90;;;;;;5027629;28;20042;-73
2022/08/02 00:07:25;;;;;;;8.40;3.58;;;13.40;99.90;;;;;;5026360;28;20038;-73
2022/08/02 00:09:50;;;;;;;11.13;3.70;;;13.40;99.90;;;;;;5024130;28;20049;-73
2022/08/02 00:12:16;;;;;;;7.93;3.58;;;13.30;99.90;;;;;;5027752;28;20107;-73
2022/08/02 00:14:42;;;;;;;10.27;3.30;;;13.30;99.90;;;;;;5025114;28;20147;-73
2022/08/02 00:17:07;;;;;;;11.32;3.85;;;13.20;99.90;;;;;;5025844;28;20095;-73
2022/08/02 00:19:33;;;;;;;8.38;3.65;;;13.20;99.90;;;;;;5027486;28;20111;-73
2022/08/02 00:21:58;;;;;;;10.52;3.50;;;13.20;99.90;;;;;;5027619;28;20409;-73
2022/08/02 00:24:24;;;;;;;6.88;3.05;;;13.10;99.90;;;;;;5028575;28;20451;-73
2022/08/02 00:26:50;;;;;;;6.97;3.35;;;13.10;99.90;;;;;;5024685;28;20447;-73
2022/08/02 00:29:15;;;;;;;13.10;3.80;;;13.00;99.90;;;;;;5025896;28;20044;-74
2022/08/02 00:31:41;;;;;;;11.00;3.42;;;12.90;99.90;;;;;;5028197;28;20503;-73
2022/08/02 00:34:07;;;;;;;11.73;4.13;;;12.90;99.90;;;;;;5029340;28;20383;-73
2022/08/02 00:36:32;;;;;;;9.48;3.58;;;12.90;99.90;;;;;;5021531;28;20141;-72
2022/08/02 00:38:58;;;;;;;8.23;3.80;;;12.90;99.90;;;;;;5024810;28;20060;-73
2022/08/02 00:41:24;;;;;;;6.00;3.38;;;12.80;99.90;;;;;;5026137;28;20099;-72
2022/08/02 00:43:50;;;;;;;8.95;3.78;;;12.70;99.90;;;;;;5025309;28;20448;-74
2022/08/02 00:46:17;;;;;;;10.27;3.85;;;12.70;99.90;;;;;;5027089;28;20580;-74
2022/08/02 00:48:43;;;;;;;11.35;3.88;;;12.60;99.90;;;;;;5023337;28;20386;-73
2022/08/02 00:51:10;;;;;;;7.03;3.97;;;12.60;99.90;;;;;;5026369;28;20041;-73
2022/08/02 00:53:35;;;;;;;9.93;3.85;;;12.70;99.90;;;;;;5027577;28;20056;-72
2022/08/02 00:56:01;;;;;;;10.63;4.43;;;12.60;99.90;;;;;;5027954;28;20489;-73
2022/08/02 00:58:27;;;;;;;12.43;4.55;;;12.60;99.90;;;;;;5020611;28;20053;-74
2022/08/02 01:00:53;;;;;;;9.25;4.15;;;12.60;99.90;;;;;;5026838;28;20049;-73
2022/08/02 01:03:19;;;;;;;11.07;3.90;;;12.70;99.90;;;;;;5023569;28;20053;-73
2022/08/02 01:05:44;;;;;;;10.93;4.40;;;12.70;99.90;;;;;;5027494;28;20041;-73
2022/08/02 01:08:10;;;;;;;14.23;4.78;;;12.70;99.90;;;;;;5022855;28;20084;-73
2022/08/02 01:10:36;;;;;;;11.27;3.85;;;12.70;99.90;;;;;;5027451;28;20047;-73
2022/08/02 01:13:01;;;;;;;12.07;4.20;;;12.70;99.90;;;;;;5024601;28;20064;-73
2022/08/02 01:15:28;;;;;;;9.32;4.20;;;12.70;99.90;;;;;;5022771;28;20045;-73
2022/08/02 01:18:04;;;;;;;11.55;4.25;;;12.70;99.90;;;;;;5023367;28;20049;-73
2022/08/02 01:20:56;;;;;;;11.40;4.25;;;12.70;99.90;;;;;;5009535;28;20052;-73
2022/08/02 01:23:40;;;;;;;10.18;4.63;;;12.80;99.90;;;;;;5025394;28;20103;-74
2022/08/02 01:26:29;;;;;;;14.95;4.95;;;12.70;99.90;;;;;;5026960;28;20076;-74
2022/08/02 01:29:03;;;;;;;9.63;4.45;;;12.70;99.90;;;;;;5025202;28;20052;-73
2022/08/02 01:31:39;;;;;;;12.10;4.57;;;12.60;99.90;;;;;;5006376;28;20112;-73
2022/08/02 01:34:15;;;;;;;11.32;4.30;;;12.60;99.90;;;;;;5021075;28;20092;-73
2022/08/02 01:36:45;;;;;;;10.30;3.80;;;12.60;99.90;;;;;;5026294;28;20076;-73
2022/08/02 01:39:14;;;;;;;10.20;5.03;;;12.60;99.90;;;;;;5025131;28;20077;-73
2022/08/02 01:41:41;;;;;;;14.70;4.53;;;12.60;99.90;;;;;;5027478;28;20054;-73
2022/08/02 01:44:09;;;;;;;11.35;4.85;;;12.60;99.90;;;;;;5026494;28;20033;-73
2022/08/02 01:46:39;;;;;;;9.38;3.90;;;12.60;99.90;;;;;;5024458;28;20048;-74
2022/08/02 01:49:08;;;;;;;11.40;4.43;;;12.60;99.90;;;;;;5025916;28;20041;-72
2022/08/02 01:54:23;;;;;;;10.10;3.92;;;12.60;99.90;;;;;;5024813;28;20250;-74
2022/08/02 01:56:50;;;;;;;11.02;5.28;;;12.60;99.90;;;;;;5029488;28;20087;-73
2022/08/02 01:59:20;;;;;;;10.52;4.18;;;12.70;99.90;;;;;;5021347;28;20049;-73
2022/08/02 02:01:48;;;;;;;9.90;4.65;;;12.70;99.90;;;;;;5027183;28;20033;-73
2022/08/02 02:04:15;;;;;;;9.40;4.88;;;12.70;99.90;;;;;;5023712;28;20049;-73
2022/08/02 02:06:43;;;;;;;11.63;4.07;;;12.70;99.90;;;;;;5025637;28;20064;-74
2022/08/02 02:09:12;;;;;;;14.15;4.95;;;12.60;99.90;;;;;;5025154;28;20076;-73
2022/08/02 02:11:42;;;;;;;8.20;4.18;;;12.70;99.90;;;;;;5025204;28;20045;-74
2022/08/02 02:14:10;;;;;;;11.40;4.35;;;12.70;99.90;;;;;;5022718;28;20132;-73
2022/08/02 02:16:39;;;;;;;16.58;4.72;;;12.70;99.90;;;;;;5025306;28;20129;-74
2022/08/02 02:19:08;;;;;;;12.65;4.47;;;12.70;99.90;;;;;;5026079;28;20448;-73
2022/08/02 02:21:33;;;;;;;10.30;4.53;;;12.70;99.90;;;;;;5024116;28;20045;-73
2022/08/02 02:23:59;;;;;;;11.65;4.40;;;12.70;99.90;;;;;;5019981;28;20037;-73
2022/08/02 02:26:27;;;;;;;10.23;4.47;;;12.70;99.90;;;;;;5028655;28;20552;-73
2022/08/02 02:28:54;;;;;;;10.48;4.40;;;12.70;99.90;;;;;;5025771;28;20041;-74
2022/08/02 02:31:20;;;;;;;12.32;4.13;;;12.70;99.90;;;;;;5023037;28;20048;-73
2022/08/02 02:33:55;;;;;;;10.48;4.82;;;12.70;99.90;;;;;;5025468;28;20060;-73
2022/08/02 02:36:21;;;;;;;13.18;4.63;;;12.70;99.90;;;;;;5024923;28;23503;-73
2022/08/02 02:38:49;;;;;;;12.10;4.97;;;12.70;99.90;;;;;;5022571;28;20053;-73
2022/08/02 02:41:17;;;;;;;10.50;4.68;;;12.70;99.90;;;;;;5028222;28;20156;-73
2022/08/02 02:43:45;;;;;;;9.63;4.13;;;12.70;99.90;;;;;;5023427;28;20128;-73
2022/08/02 02:46:12;;;;;;;11.25;4.55;;;12.70;99.90;;;;;;5024672;28;20100;-73
2022/08/02 02:48:38;;;;;;;12.95;4.28;;;12.70;99.90;;;;;;5026553;28;20047;-73
2022/08/02 02:51:05;;;;;;;10.32;4.60;;;12.60;99.90;;;;;;5024534;28;20041;-73
2022/08/02 02:53:32;;;;;;;16.35;5.63;;;12.70;99.90;;;;;;5023414;28;20050;-73
2022/08/02 02:55:59;;;;;;;11.48;4.10;;;12.60;99.90;;;;;;5023110;28;20039;-74
2022/08/02 02:58:25;;;;;;;6.18;3.80;;;12.70;99.90;;;;;;5024008;28;20421;-73
2022/08/02 03:03:36;;;;;;;11.10;4.53;;;12.70;99.90;;;;;;5015765;28;20041;-74
2022/08/02 03:06:02;;;;;;;9.50;4.15;;;12.70;99.90;;;;;;5023018;28;20053;-73
2022/08/02 03:08:28;;;;;;;14.73;4.47;;;12.70;99.90;;;;;;5023935;28;20400;-72
2022/08/02 03:10:55;;;;;;;14.85;4.65;;;12.70;99.90;;;;;;5022379;28;20528;-74
2022/08/02 03:13:21;;;;;;;15.18;4.93;;;12.70;99.90;;;;;;5023168;28;20049;-74
2022/08/02 03:15:47;;;;;;;13.30;4.13;;;12.70;99.90;;;;;;5023385;28;20052;-74
2022/08/02 03:18:33;;;;;;;8.95;4.10;;;12.80;99.90;;;;;;5026969;28;20030;-74
2022/08/02 03:21:04;;;;;;;10.23;3.60;;;12.80;99.90;;;;;;5022714;28;20050;-74
2022/08/02 03:23:30;;;;;;;12.68;3.70;;;12.80;99.90;;;;;;5024626;28;20042;-73
2022/08/02 03:25:56;;;;;;;12.15;4.07;;;12.80;99.90;;;;;;5024538;28;20099;-74
2022/08/02 03:28:21;;;;;;;7.40;3.72;;;12.80;99.90;;;;;;5016808;28;20057;-74
2022/08/02 03:30:47;;;;;;;11.35;3.83;;;12.80;99.90;;;;;;5023404;28;20046;-74
2022/08/02 03:33:13;;;;;;;7.68;3.97;;;12.80;99.90;;;;;;5026275;28;20045;-74
2022/08/02 03:35:41;;;;;;;10.43;3.80;;;12.80;99.90;;;;;;5025849;28;20282;-74
2022/08/02 03:38:07;;;;;;;10.77;4.05;;;12.80;99.90;;;;;;5023301;28;20061;-74
2022/08/02 03:40:35;;;;;;;9.57;3.60;;;12.80;99.90;;;;;;5021891;28;20069;-74
2022/08/02 03:43:01;;;;;;;8.02;3.70;;;12.90;99.90;;;;;;5024641;28;20505;-74
2022/08/02 03:45:27;;;;;;;13.68;3.78;;;12.80;99.90;;;;;;5004173;28;20052;-74
2022/08/02 03:47:53;;;;;;;10.70;3.70;;;12.90;99.90;;;;;;5024716;28;20038;-73
2022/08/02 03:50:21;;;;;;;8.48;3.97;;;12.90;99.90;;;;;;5021517;28;20072;-74
2022/08/02 03:52:47;;;;;;;8.60;3.85;;;12.90;99.90;;;;;;5024701;28;20041;-74
2022/08/02 03:55:13;;;;;;;9.93;3.88;;;12.90;99.90;;;;;;5021353;28;20041;-74
2022/08/02 03:57:41;;;;;;;9.18;3.75;;;12.90;99.90;;;;;;5021083;28;20413;-74
2022/08/02 04:00:12;;;;;;;10.95;4.20;;;12.80;99.90;;;;;;5017471;28;20052;-74
2022/08/02 04:02:38;;;;;;;11.25;4.28;;;12.90;99.90;;;;;;5022648;28;20037;-73
2022/08/02 04:05:04;;;;;;;12.52;4.13;;;12.90;99.90;;;;;;5024678;28;20123;-73
2022/08/02 04:07:30;;;;;;;10.68;4.88;;;12.90;99.90;;;;;;5024279;28;20210;-74
2022/08/02 04:09:55;;;;;;;16.63;4.97;;;12.80;99.90;;;;;;5024130;28;20608;-73
2022/08/02 04:12:21;;;;;;;11.60;4.30;;;12.90;99.90;;;;;;5023360;28;20088;-73
2022/08/02 04:14:47;;;;;;;11.07;3.70;;;12.90;99.90;;;;;;5020675;28;20184;-74
2022/08/02 04:17:16;;;;;;;12.07;4.35;;;12.90;99.90;;;;;;5023324;28;20042;-73
2022/08/02 04:19:52;;;;;;;10.93;3.95;;;12.90;99.90;;;;;;5023845;28;20037;-74
2022/08/02 04:22:40;;;;;;;12.35;4.10;;;13.00;99.90;;;;;;5020358;28;20122;-74
2022/08/02 04:25:08;;;;;;;10.77;4.55;;;13.00;99.90;;;;;;5025012;28;20080;-74
2022/08/02 04:27:35;;;;;;;8.50;4.22;;;13.10;99.90;;;;;;5022941;28;20053;-74
2022/08/02 04:30:03;;;;;;;9.88;4.18;;;13.20;99.90;;;;;;5022756;28;20125;-74
2022/08/02 04:32:30;;;;;;;11.65;4.38;;;13.20;99.90;;;;;;5023960;28;20065;-74
2022/08/02 04:34:56;;;;;;;9.50;3.60;;;13.30;99.90;;;;;;5019585;28;20514;-74
2022/08/02 04:37:22;;;;;;;10.52;4.00;;;13.30;99.90;;;;;;5026666;28;20045;-74
2022/08/02 04:39:48;;;;;;;11.75;3.72;;;13.40;99.90;;;;;;5026797;28;20061;-75
2022/08/02 04:42:21;;;;;;;12.93;4.18;;;13.40;99.90;;;;;;5028573;28;21568;-75
2022/08/02 04:44:47;;;;;;;;;;;13.50;99.90;;;;;;5022720;28;20065;-75
2022/08/02 04:47:12;;;;;;;8.43;3.75;;;13.50;99.90;;;;;;5027265;28;19956;-74
2022/08/02 04:49:38;;;;;;;14.27;3.85;;;13.60;99.90;;;;;;5027150;28;20462;-74
2022/08/02 04:52:04;;;;;;;10.88;4.07;;;13.70;99.90;;;;;;5026645;28;20768;-73
2022/08/02 04:54:30;;;;;;;11.82;3.95;;;13.70;99.90;;;;;;5023483;28;20041;-75
2022/08/02 04:56:56;;;;;;;12.70;4.03;;;13.80;99.90;;;;;;5025595;28;20053;-75
2022/08/02 04:59:21;;;;;;;10.65;3.92;;;13.80;99.90;;;;;;5021615;28;20069;-75
2022/08/02 05:01:47;;;;;;;9.95;4.07;;;13.90;99.90;;;;;;5026337;28;20404;-74
2022/08/02 05:04:13;;;;;;;10.35;3.85;;;13.90;99.90;;;;;;5022591;28;20064;-74
2022/08/02 05:06:38;;;;;;;15.77;4.22;;;13.90;99.90;;;;;;5029903;28;20042;-74
2022/08/02 05:09:04;;;;;;;11.35;4.38;;;13.90;99.90;;;;;;5027422;28;20067;-74
2022/08/02 05:11:30;;;;;;;9.43;3.67;;;13.90;99.90;;;;;;5024355;28;20041;-76
2022/08/02 05:13:56;;;;;;;13.10;4.35;;;13.90;99.90;;;;;;5025312;28;20056;-74
2022/08/02 05:16:22;;;;;;;9.15;4.10;;;13.90;99.90;;;;;;5025035;28;20049;-75
2022/08/02 05:18:47;;;;;;;10.68;4.13;;;14.00;99.90;;;;;;5024842;28;20049;-75
2022/08/02 05:21:13;;;;;;;14.65;4.40;;;14.00;99.90;;;;;;5029722;28;20046;-75
2022/08/02 05:23:39;;;;;;;14.98;5.05;;;14.10;99.90;;;;;;5027817;28;20037;-75
2022/08/02 05:26:04;;;;;;;10.70;3.85;;;14.30;99.90;;;;;;5019606;28;20057;-74
2022/08/02 05:28:30;;;;;;;12.77;4.15;;;14.50;99.90;;;;;;5025472;28;20136;-75
2022/08/02 05:30:55;;;;;;;7.18;3.88;;;14.60;99.90;;;;;;5027833;28;20056;-75
2022/08/02 05:33:21;;;;;;;11.90;3.97;;;14.80;99.90;;;;;;5026614;28;20041;-75
2022/08/02 05:35:47;;;;;;;12.10;3.95;;;15.10;99.90;;;;;;5023635;28;20033;-74
2022/08/02 05:38:12;;;;;;;9.23;3.55;;;15.30;99.90;;;;;;5026976;28;20056;-74
2022/08/02 05:40:39;;;;;;;15.52;5.15;;;15.50;99.90;;;;;;5023432;28;20432;-74
2022/08/02 05:43:12;;;;;;;9.75;4.03;;;15.70;99.90;;;;;;5028700;28;20049;-74
2022/08/02 05:45:38;;;;;;;10.55;3.75;;;16.00;99.90;;;;;;5021518;28;20052;-76
2022/08/02 05:48:04;;;;;;;9.60;3.15;;;16.20;99.90;;;;;;5026946;28;20037;-75
2022/08/02 05:50:31;;;;;;;7.55;3.80;;;16.40;99.90;;;;;;5026263;28;20049;-75
2022/08/02 05:53:08;;;;;;;9.95;3.47;;;16.50;99.90;;;;;;5027357;28;20045;-76
2022/08/02 05:55:37;;;;;;;10.52;3.85;;;16.70;99.90;;;;;;5004803;28;20049;-75
2022/08/02 05:58:26;;;;;;;9.15;3.33;;;16.70;99.90;;;;;;5024480;28;20057;-75
2022/08/02 06:00:55;;;;;;;7.25;3.55;;;16.80;99.90;;;;;;5021951;28;20070;-75
2022/08/02 06:03:25;;;;;;;8.57;3.78;;;16.80;99.90;;;;;;5024605;28;20048;-76
2022/08/02 06:06:11;;;;;;;11.02;4.40;;;16.80;99.90;;;;;;5023786;28;20073;-75
2022/08/02 06:08:49;;;;;;;7.05;3.40;;;16.90;99.90;;;;;;5016609;28;20056;-75
2022/08/02 06:11:19;;;;;;;12.23;2.85;;;16.90;99.90;;;;;;5024054;28;20087;-74
2022/08/02 06:13:46;;;;;;;12.68;3.13;;;17.00;99.90;;;;;;5021016;28;20072;-74
2022/08/02 06:16:12;;;;;;;7.65;3.13;;;16.90;99.90;;;;;;5021575;28;20564;-74
2022/08/02 06:18:40;;;;;;;8.18;3.03;;;17.00;99.90;;;;;;5026735;28;20112;-74
2022/08/02 06:21:07;;;;;;;9.35;3.00;;;17.00;99.90;;;;;;5025331;28;20038;-76
2022/08/02 06:23:35;;;;;;;10.20;2.90;;;16.90;99.90;;;;;;5025500;28;20037;-75
2022/08/02 06:26:02;;;;;;;9.77;3.22;;;16.90;99.90;;;;;;5022249;28;20050;-75
2022/08/02 06:28:29;;;;;;;5.82;2.67;;;16.90;99.90;;;;;;5009234;28;20041;-75
2022/08/02 06:30:56;;;;;;;12.32;3.58;;;17.00;99.90;;;;;;5024958;28;20672;-75
2022/08/02 06:33:22;;;;;;;10.32;2.95;;;17.10;99.90;;;;;;5027730;28;20049;-75
2022/08/02 06:36:01;;;;;;;8.90;3.00;;;17.20;99.90;;;;;;5020583;28;20073;-74
2022/08/02 06:38:32;;;;;;;11.25;2.88;;;17.50;99.90;;;;;;5019359;28;20045;-75
2022/08/02 06:41:07;;;;;;;7.25;2.80;;;17.70;99.90;;;;;;5024080;28;20038;-76
2022/08/02 06:44:00;;;;;;;6.65;2.53;;;18.00;99.90;;;;;;5011780;28;20076;-76
2022/08/02 06:46:27;;;;;;;7.88;2.58;;;18.20;99.90;;;;;;5016184;28;20379;-76
2022/08/02 06:48:53;;;;;;;6.72;2.58;;;18.40;99.90;;;;;;5026612;28;20054;-76
2022/08/02 06:51:19;;;;;;;6.68;2.70;;;18.50;99.90;;;;;;5026382;28;20126;-76
2022/08/02 06:53:45;;;;;;;7.18;2.90;;;18.50;99.90;;;;;;5020573;28;20501;-76
2022/08/02 06:56:11;;;;;;;12.77;3.10;;;18.40;99.90;;;;;;5023099;28;20045;-75
2022/08/02 06:58:37;;;;;;;9.65;2.80;;;18.30;99.90;;;;;;5023713;28;20049;-75
2022/08/02 07:01:06;;;;;;;8.25;2.80;;;18.40;99.90;;;;;;5023612;28;20091;-75
2022/08/02 07:03:35;;;;;;;7.65;2.95;;;18.40;99.90;;;;;;5025576;28;20045;-73
2022/08/02 07:06:01;;;;;;;8.02;2.92;;;18.60;99.90;;;;;;5023340;28;20054;-75
2022/08/02 07:08:37;;;;;;;11.73;3.20;;;18.80;99.90;;;;;;5009513;28;20084;-75
2022/08/02 07:11:07;;;;;;;7.65;2.50;;;19.00;99.90;;;;;;5020077;28;20039;-75
2022/08/02 07:13:34;;;;;;;9.13;2.95;;;19.30;99.90;;;;;;5021719;28;20128;-75
2022/08/02 07:16:00;;;;;;;6.28;2.25;;;19.40;99.90;;;;;;5021811;28;20124;-76
2022/08/02 07:18:26;;;;;;;6.05;2.50;;;19.50;99.90;;;;;;5013225;28;20469;-76
2022/08/02 07:20:52;;;;;;;9.80;3.17;;;19.70;99.90;;;;;;5025844;28;20053;-75
2022/08/02 07:23:18;;;;;;;8.75;2.80;;;19.80;99.90;;;;;;5022116;28;20132;-76
2022/08/02 07:25:44;;;;;;;7.97;2.55;;;19.90;99.90;;;;;;5023562;28;20050;-75
2022/08/02 07:28:10;;;;;;;5.93;2.15;;;20.00;99.90;;;;;;5023661;28;20120;-75
2022/08/02 07:30:37;;;;;;;6.07;2.20;;;20.20;99.90;;;;;;5019285;28;20042;-75
2022/08/02 07:33:03;;;;;;;6.25;2.08;;;20.40;99.90;;;;;;5021919;28;20038;-74
2022/08/02 07:35:29;;;;;;;5.65;2.25;;;20.60;99.90;;;;;;5021941;28;20068;-75
2022/08/02 07:37:55;;;;;;;4.32;1.90;;;20.80;99.90;;;;;;5026269;28;20045;-75
2022/08/02 07:40:21;;;;;;;6.22;1.90;;;21.00;99.90;;;;;;5022141;28;20095;-75
2022/08/02 07:42:50;;;;;;;8.23;2.17;;;21.10;99.90;;;;;;5010630;28;20492;-75
2022/08/02 07:45:16;;;;;;;6.43;2.42;;;21.20;99.90;;;;;;5017533;28;20285;-75
2022/08/02 07:47:44;;;;;;;6.85;2.22;;;21.30;99.90;;;;;;5019078;28;20037;-75
2022/08/02 07:50:10;;;;;;;8.07;1.88;;;21.30;99.90;;;;;;5019518;28;20421;-76
2022/08/02 07:52:36;;;;;;;8.77;2.50;;;21.40;99.90;;;;;;5025160;28;20095;-78
2022/08/02 07:55:03;;;;;;;4.20;1.88;;;21.30;99.90;;;;;;5025926;28;20399;-76
2022/08/02 07:57:29;;;;;;;7.78;2.25;;;21.30;99.90;;;;;;5023703;28;20046;-78
2022/08/02 07:59:55;;;;;;;5.03;2.10;;;21.30;99.90;;;;;;5020917;28;20107;-77
2022/08/02 08:02:23;;;;;;;8.80;2.15;;;21.30;99.90;;;;;;5017491;28;20064;-78
2022/08/02 08:04:49;;;;;;;9.13;2.35;;;21.50;99.90;;;;;;5025103;28;20100;-78
2022/08/02 08:07:15;;;;;;;4.82;2.20;;;21.60;99.90;;;;;;5028811;28;20052;-77
2022/08/02 08:09:40;;;;;;;7.18;2.28;;;21.70;99.90;;;;;;5030153;28;20053;-78
2022/08/02 08:12:11;;;;;;;5.50;2.25;;;21.90;99.90;;;;;;5028970;28;20049;-78
2022/08/02 08:14:37;;;;;;;5.32;2.33;;;22.10;99.90;;;;;;5024746;28;20051;-78
2022/08/02 08:17:04;;;;;;;5.47;2.38;;;22.30;99.90;;;;;;5014200;28;20084;-77
2022/08/02 08:19:30;;;;;;;4.75;2.10;;;22.50;99.90;;;;;;5026555;28;20040;-79
2022/08/02 08:21:58;;;;;;;8.43;2.40;;;22.60;99.90;;;;;;5028431;28;20041;-79
2022/08/02 08:24:24;;;;;;;4.47;2.10;;;22.60;99.90;;;;;;5023655;28;20044;-79
2022/08/02 08:26:50;;;;;;;6.88;2.67;;;22.80;99.90;;;;;;5022972;28;20041;-79
2022/08/02 08:29:15;;;;;;;6.70;2.35;;;23.00;99.90;;;;;;5023215;28;20045;-79
2022/08/02 08:31:41;;;;;;;7.82;2.70;;;23.10;99.90;;;;;;5032808;28;20501;-80
2022/08/02 08:34:06;;;;;;;6.03;2.55;;;23.10;99.90;;;;;;5025830;28;20131;-79
2022/08/02 08:36:32;;;;;;;12.43;3.55;;;23.10;99.90;;;;;;5027139;28;21157;-78
2022/08/02 08:38:58;;;;;;;7.78;2.72;;;23.20;99.90;;;;;;5024698;28;20038;-77
2022/08/02 08:41:23;;;;;;;5.80;2.78;;;23.30;99.90;;;;;;5023534;28;20052;-76
2022/08/02 08:43:49;;;;;;;8.35;3.45;;;23.30;99.90;;;;;;5028239;28;20132;-76
2022/08/02 08:46:26;;;;;;;6.93;2.60;;;23.20;99.90;;;;;;5030007;28;20076;-77
2022/08/02 08:48:55;;;;;;;7.30;2.50;;;23.20;99.90;;;;;;5028085;28;20405;-77
2022/08/02 08:51:23;;;;;;;5.68;2.78;;;23.50;99.90;;;;;;5025995;28;20049;-79
2022/08/02 08:53:55;;;;;;;8.00;3.10;;;23.70;99.90;;;;;;5025733;28;20052;-80
2022/08/02 08:56:21;;;;;;;7.53;3.47;;;23.90;99.90;;;;;;5025104;28;20556;-80
2022/08/02 08:58:47;;;;;;;10.77;3.42;;;24.10;99.90;;;;;;5024995;28;20037;-80
2022/08/02 09:01:15;;;;;;;5.10;2.30;;;24.10;99.90;;;;;;5023782;28;20033;-80
2022/08/02 09:03:42;;;;;;;6.93;3.17;;;24.10;99.90;;;;;;5026859;28;20429;-81
2022/08/02 09:06:08;;;;;;;9.70;3.58;;;24.10;99.90;;;;;;5021007;28;20041;-79
2022/08/02 09:08:33;;;;;;;6.18;3.63;;;24.00;99.90;;;;;;5023339;28;20052;-79
2022/08/02 09:11:00;;;;;;;4.68;2.78;;;24.00;99.90;;;;;;5022113;28;20045;-80
2022/08/02 09:13:30;;;;;;;9.18;3.15;;;24.00;99.90;;;;;;5028758;28;20516;-80
2022/08/02 09:15:58;;;;;;;8.73;3.35;;;24.10;99.90;;;;;;5023919;28;20505;-82
2022/08/02 09:18:32;;;;;;;5.95;3.53;;;24.30;99.90;;;;;;5004264;28;20049;-81
2022/08/02 09:21:01;;;;;;;9.20;4.20;;;24.40;99.90;;;;;;5023672;28;21220;-81
2022/08/02 09:23:43;;;;;;;6.53;3.75;;;24.50;99.90;;;;;;5003828;28;20522;-79
2022/08/02 09:26:12;;;;;;;12.55;4.40;;;24.70;99.90;;;;;;5021611;28;20497;-79
2022/08/02 09:28:39;;;;;;;7.07;3.97;;;24.90;99.90;;;;;;5026632;28;20171;-78
2022/08/02 09:31:13;;;;;;;9.07;4.60;;;25.00;99.90;;;;;;5022197;28;20489;-77
2022/08/02 09:33:42;;;;;;;8.98;5.07;;;25.10;99.90;;;;;;5027704;28;20578;-80
2022/08/02 09:36:11;;;;;;;10.02;4.20;;;25.20;99.90;;;;;;5025562;28;20413;-79
2022/08/02 09:38:37;;;;;;;9.55;5.03;;;25.30;99.90;;;;;;5015595;28;20046;-80
2022/08/02 09:41:05;;;;;;;13.27;5.70;;;25.30;99.90;;;;;;5019558;28;20128;-79
2022/08/02 09:43:39;;;;;;;9.52;5.40;;;25.30;99.90;;;;;;5024991;28;20046;-79
2022/08/02 09:46:16;;;;;;;8.48;5.15;;;25.30;99.90;;;;;;5022753;28;20065;-78
2022/08/02 09:48:50;;;;;;;8.27;5.03;;;25.20;99.90;;;;;;5027118;28;20052;-75
2022/08/02 09:51:22;;;;;;;13.63;6.07;;;25.30;99.90;;;;;;5024926;28;20068;-76
2022/08/02 09:53:50;;;;;;;13.05;7.10;;;25.30;99.90;;;;;;5024907;28;20112;-82
2022/08/02 09:56:17;;;;;;;13.20;6.82;;;25.30;99.90;;;;;;5021354;28;20053;-79
2022/08/02 09:58:43;;;;;;;11.57;6.75;;;25.20;99.90;;;;;;5027791;28;20071;-81
2022/08/02 10:01:09;;;;;;;9.93;5.88;;;25.10;99.90;;;;;;5021150;28;20112;-82
2022/08/02 10:03:35;;;;;;;10.43;5.80;;;25.10;99.90;;;;;;5018601;28;20045;-81
2022/08/02 10:06:01;;;;;;;7.50;5.82;;;25.20;99.90;;;;;;5022888;28;20049;-81
2022/08/02 10:08:28;;;;;;;12.13;7.03;;;25.40;99.90;;;;;;5016587;28;20042;-81
2022/08/02 10:11:00;;;;;;;9.07;6.63;;;25.60;99.90;;;;;;5020888;28;20371;-81
2022/08/02 10:13:30;;;;;;;11.77;8.48;;;25.70;99.90;;;;;;5016453;28;20046;-76
2022/08/02 10:15:56;;;;;;;13.63;8.60;;;25.80;99.90;;;;;;5018762;28;20063;-76
2022/08/02 10:18:22;;;;;;;13.57;9.65;;;25.90;99.90;;;;;;5024482;28;20045;-76
2022/08/02 10:20:49;;;;;;;14.05;9.48;;;25.90;99.90;;;;;;5015751;28;20389;-75
2022/08/02 10:23:16;;;;;;;12.02;9.25;;;25.90;99.90;;;;;;5024921;28;20487;-75
2022/08/02 10:25:44;;;;;;;14.55;9.85;;;25.80;99.90;;;;;;5018585;28;20057;-75
2022/08/02 10:28:14;;;;;;;12.43;8.90;;;25.70;99.90;;;;;;5019922;28;20081;-76
2022/08/02 10:30:42;;;;;;;12.45;10.15;;;25.80;99.90;;;;;;5024267;28;20037;-76
2022/08/02 10:33:10;;;;;;;13.30;9.23;;;25.80;99.90;;;;;;5015438;28;20049;-75
2022/08/02 10:35:38;;;;;;;11.85;9.32;;;25.90;99.90;;;;;;5016807;28;20124;-76
2022/08/02 10:38:07;;;;;;;13.38;9.05;;;25.80;99.90;;;;;;5021415;28;20041;-75
2022/08/02 10:40:51;;;;;;;16.63;8.73;;;25.80;99.90;;;;;;5019385;28;20512;-76
2022/08/02 10:43:34;;;;;;;13.15;9.68;;;25.80;99.90;;;;;;5016015;28;20046;-76
2022/08/02 10:46:19;;;;;;;16.00;9.43;;;25.90;99.90;;;;;;5014530;28;20151;-75
2022/08/02 10:49:07;;;;;;;12.10;9.55;;;25.90;99.90;;;;;;5021143;28;20099;-75
2022/08/02 10:51:52;;;;;;;16.45;10.13;;;25.80;99.90;;;;;;5016931;28;20400;-76
2022/08/02 10:54:20;;;;;;;14.60;9.90;;;25.80;99.90;;;;;;5021672;28;20041;-76
2022/08/02 10:56:50;;;;;;;20.63;11.10;;;25.80;99.90;;;;;;5023987;28;20095;-75
2022/08/02 10:59:35;;;;;;;16.40;9.95;;;25.70;99.90;;;;;;5023231;28;20045;-75
2022/08/02 11:02:03;;;;;;;13.77;9.80;;;25.60;99.90;;;;;;5018300;28;20060;-75
2022/08/02 11:04:52;;;;;;;14.48;11.25;;;25.50;99.90;;;;;;5021491;28;20124;-77
2022/08/02 11:07:32;;;;;;;15.65;11.60;;;25.30;99.90;;;;;;5023201;28;20136;-76
2022/08/02 11:09:59;;;;;;;15.38;10.20;;;25.20;99.90;;;;;;5015602;28;20053;-77
2022/08/02 11:12:26;;;;;;;17.83;10.32;;;25.20;99.90;;;;;;5023349;28;20329;-76
2022/08/02 11:15:03;;;;;;;13.88;9.93;;;25.20;99.90;;;;;;5020419;28;20038;-75
2022/08/02 11:17:53;;;;;;;15.63;11.05;;;25.40;99.90;;;;;;5017067;28;20052;-76
2022/08/02 11:20:20;;;;;;;15.50;10.55;;;25.40;99.90;;;;;;5024133;28;20132;-76
2022/08/02 11:22:47;;;;;;;15.80;10.95;;;25.70;99.90;;;;;;5014094;28;20046;-77
2022/08/02 11:25:22;;;;;;;16.30;11.73;;;25.80;99.90;;;;;;5015262;28;20045;-76
2022/08/02 11:27:52;;;;;;;15.05;12.20;;;25.90;99.90;;;;;;5021807;28;20061;-75
2022/08/02 11:30:19;;;;;;;15.65;12.38;;;25.70;99.90;;;;;;5023345;28;20187;-75
2022/08/02 11:32:45;;;;;;;14.38;11.02;;;25.60;99.90;;;;;;5014851;28;20042;-76
2022/08/02 11:35:11;;;;;;;16.10;12.02;;;25.50;99.90;;;;;;5026565;28;20087;-75
2022/08/02 11:37:41;;;;;;;14.50;11.35;;;25.40;99.90;;;;;;5023603;28;20038;-75
2022/08/02 11:40:10;;;;;;;17.77;12.07;;;25.30;99.90;;;;;;5012142;28;20398;-74
2022/08/02 11:42:37;;;;;;;16.55;12.35;;;25.20;99.90;;;;;;5024886;28;20190;-74
2022/08/02 11:45:05;;;;;;;14.50;11.50;;;25.10;99.90;;;;;;5024302;28;20493;-73
2022/08/02 11:47:31;;;;;;;15.15;10.80;;;25.10;99.90;;;;;;5026182;28;20496;-74
2022/08/02 11:50:08;;;;;;;17.17;11.63;;;25.10;99.90;;;;;;5021826;28;20033;-73
2022/08/02 11:52:35;;;;;;;16.48;11.02;;;25.10;99.90;;;;;;5019802;28;20144;-74
2022/08/02 11:55:01;;;;;;;16.23;10.73;;;25.00;99.90;;;;;;5019909;28;20278;-74
2022/08/02 11:57:27;;;;;;;13.10;10.68;;;24.90;99.90;;;;;;5022524;28;20125;-73
2022/08/02 11:59:54;;;;;;;13.00;11.20;;;24.90;99.90;;;;;;5023459;28;20423;-73
2022/08/02 12:02:26;;;;;;;16.02;11.30;;;24.80;99.90;;;;;;5026929;28;20485;-73
2022/08/02 12:04:58;;;;;;;12.48;10.05;;;24.70;99.90;;;;;;5029564;28;20084;-74
2022/08/02 12:07:29;;;;;;;13.60;10.93;;;24.60;99.90;;;;;;5026506;28;20046;-73
2022/08/02 12:10:00;;;;;;;14.52;11.32;;;24.50;99.90;;;;;;5028030;28;20512;-74
2022/08/02 12:12:26;;;;;;;16.00;10.60;;;24.30;99.90;;;;;;5025736;28;20128;-74
2022/08/02 12:14:52;;;;;;;12.48;10.23;;;24.20;99.90;;;;;;5019769;28;20065;-75
2022/08/02 12:20:13;;;;;;;16.77;11.40;;;24.20;99.90;;;;;;5022259;28;20505;-71
2022/08/02 12:22:39;;;;;;;15.85;11.73;;;24.20;99.90;;;;;;5028404;28;20069;-72
2022/08/02 12:25:25;;;;;;;16.83;11.68;;;24.20;99.90;;;;;;5023293;28;20065;-72
2022/08/02 12:27:51;;;;;;;16.27;12.10;;;24.10;99.90;;;;;;5028675;28;20098;-74
2022/08/02 12:30:18;;;;;;;17.30;12.38;;;24.10;99.90;;;;;;5025950;28;20145;-72
2022/08/02 12:32:44;;;;;;;16.70;12.27;;;24.10;99.90;;;;;;5021623;28;20066;-72
2022/08/02 12:35:15;;;;;;;21.90;12.95;;;24.10;99.90;;;;;;5022607;28;20114;-72
2022/08/02 12:37:44;;;;;;;15.23;13.38;;;24.10;99.90;;;;;;5019849;28;20146;-73
2022/08/02 12:40:20;;;;;;;17.92;12.82;;;24.10;99.90;;;;;;5027130;28;20033;-73
2022/08/02 12:42:52;;;;;;;17.92;13.32;;;24.20;99.90;;;;;;5032411;28;20550;-73
2022/08/02 12:45:19;;;;;;;19.70;12.75;;;24.30;99.90;;;;;;5024547;28;20381;-74
2022/08/02 12:47:50;;;;;;;16.25;13.00;;;24.30;99.90;;;;;;5029272;28;20183;-73
2022/08/02 12:50:36;;;;;;;16.83;11.95;;;24.40;99.90;;;;;;5024082;28;20124;-73
2022/08/02 12:53:15;;;;;;;17.77;12.02;;;24.60;99.90;;;;;;5027340;28;20041;-73
2022/08/02 12:55:56;;;;;;;17.63;11.82;;;24.70;99.90;;;;;;5026801;28;20045;-73